Time;durP1;ratioP1;P1;durP2;ratioP2;P2;SDS_P1;SDS_P2;PMS_P1;PMS_P2;Temp;Humidity;BMP_temperature;BMP_pressure;BME280_temperature;BME280_humidity;BME280_pressure;Samples;Min_cycle;Max_cycle;Signal;HPM_P1;HPM_P2
2023/08/13 00:00:07;;;;;;;7.22;1.90;;;;;;;20.15;59.36;101667.38;5042117;28;20076;-61
2023/08/13 00:02:36;;;;;;;6.25;2.45;;;;;;;20.14;59.31;101660.28;5042521;28;20049;-61
2023/08/13 00:05:05;;;;;;;8.02;2.40;;;;;;;20.12;59.34;101668.75;5042389;28;20050;-61
2023/08/13 00:07:33;;;;;;;10.65;2.38;;;;;;;20.12;59.28;101659.72;5056098;28;20081;-61
2023/08/13 00:10:02;;;;;;;6.60;2.35;;;;;;;20.11;59.32;101666.28;5062504;28;20049;-60
2023/08/13 00:12:29;;;;;;;7.05;2.72;;;;;;;20.11;59.25;101663.53;5063076;28;20053;-62
2023/08/13 00:14:57;;;;;;;8.90;2.20;;;;;;;20.09;59.35;101657.53;5065896;28;20049;-61
2023/08/13 00:17:25;;;;;;;7.07;2.28;;;;;;;20.08;59.36;101661.34;5065852;28;20049;-61
2023/08/13 00:19:53;;;;;;;6.50;2.40;;;;;;;20.06;59.33;101647.16;5060970;28;20042;-61
2023/08/13 00:22:22;;;;;;;8.00;2.88;;;;;;;20.04;59.45;101652.88;5045312;28;20517;-61
2023/08/13 00:24:53;;;;;;;7.32;2.38;;;;;;;20.03;59.32;101656.69;5046130;28;20068;-62
2023/08/13 00:27:21;;;;;;;10.13;2.10;;;;;;;20.01;59.52;101653.41;5076903;27;20073;-61
2023/08/13 00:29:49;;;;;;;7.93;2.67;;;;;;;20.01;59.46;101658.03;5150587;27;20044;-61
2023/08/13 00:32:17;;;;;;;7.38;2.53;;;;;;;20.00;59.47;101656.41;5132753;27;20049;-61
2023/08/13 00:34:45;;;;;;;6.25;2.05;;;;;;;19.98;59.36;101653.94;5064419;28;20049;-61
2023/08/13 00:37:12;;;;;;;10.32;2.22;;;;;;;19.98;59.41;101645.75;5057008;28;20071;-61
2023/08/13 00:39:41;;;;;;;7.00;2.20;;;;;;;19.96;59.36;101652.56;5046484;28;20053;-61
2023/08/13 00:42:09;;;;;;;6.80;2.05;;;;;;;19.92;59.32;101648.72;5057131;28;20045;-61
2023/08/13 00:44:37;;;;;;;4.85;2.53;;;;;;;19.94;59.42;101652.00;5045330;28;20090;-62
2023/08/13 00:47:05;;;;;;;9.38;2.28;;;;;;;19.92;59.45;101648.72;5045142;28;20494;-62
2023/08/13 00:49:34;;;;;;;6.07;2.38;;;;;;;19.91;59.44;101650.63;5045294;28;20045;-62
2023/08/13 00:52:02;;;;;;;7.50;2.65;;;;;;;19.91;59.46;101645.16;5044159;28;20054;-61
2023/08/13 00:54:30;;;;;;;4.93;2.20;;;;;;;19.88;59.37;101644.88;5040274;28;20049;-62
2023/08/13 00:57:00;;;;;;;6.70;2.55;;;;;;;19.88;59.40;101648.41;5045266;28;20049;-61
2023/08/13 00:59:28;;;;;;;7.82;2.92;;;;;;;19.86;59.52;101645.13;5050965;28;20071;-61
2023/08/13 01:01:56;;;;;;;9.48;2.47;;;;;;;19.85;59.40;101640.75;5065111;28;20056;-61
2023/08/13 01:04:24;;;;;;;8.77;2.63;;;;;;;19.83;59.50;101637.47;5061608;28;20053;-61
2023/08/13 01:07:02;;;;;;;8.18;2.90;;;;;;;19.82;59.48;101644.84;5044694;28;20061;-61
2023/08/13 01:09:40;;;;;;;7.38;1.80;;;;;;;19.80;59.55;101638.81;5045222;28;20048;-61
2023/08/13 01:12:19;;;;;;;7.70;2.33;;;;;;;19.79;59.47;101642.63;5044781;28;20049;-61
2023/08/13 01:14:56;;;;;;;7.43;2.58;;;;;;;19.79;59.49;101647.28;5044908;28;20056;-61
2023/08/13 01:17:26;;;;;;;8.35;2.13;;;;;;;19.76;59.53;101645.06;5044844;28;20079;-62
2023/08/13 01:19:55;;;;;;;6.85;2.40;;;;;;;19.75;59.63;101646.16;5044789;28;20308;-61
2023/08/13 01:22:26;;;;;;;6.13;2.00;;;;;;;19.74;59.56;101652.69;5060204;27;20057;-61
2023/08/13 01:24:55;;;;;;;6.22;2.10;;;;;;;19.71;59.61;101654.03;5046522;27;20071;-60
2023/08/13 01:27:32;;;;;;;8.35;2.35;;;;;;;19.71;59.67;101645.03;5052519;27;20053;-61
2023/08/13 01:30:05;;;;;;;5.78;2.28;;;;;;;19.68;59.67;101640.94;5044758;28;20464;-61
2023/08/13 01:32:38;;;;;;;7.78;1.98;;;;;;;19.68;59.72;101654.56;5044084;28;20045;-61
2023/08/13 01:35:09;;;;;;;5.75;2.55;;;;;;;19.66;59.74;101645.84;5044835;28;20049;-61
2023/08/13 01:37:39;;;;;;;4.72;1.80;;;;;;;19.66;59.71;101645.84;5104339;27;20043;-61
2023/08/13 01:40:08;;;;;;;9.52;3.13;;;;;;;19.65;59.53;101643.38;5087347;27;20052;-61
2023/08/13 01:42:35;;;;;;;6.57;2.40;;;;;;;19.64;59.70;101648.00;5052618;28;20049;-60
2023/08/13 01:45:04;;;;;;;9.27;2.10;;;;;;;19.64;59.54;101650.72;5044401;28;20078;-62
2023/08/13 01:47:32;;;;;;;9.10;2.25;;;;;;;19.62;59.56;101647.44;5044254;28;20418;-61
2023/08/13 01:49:59;;;;;;;8.18;3.25;;;;;;;19.61;59.67;101647.69;5044175;28;20041;-61
2023/08/13 01:52:27;;;;;;;6.22;1.95;;;;;;;19.60;59.61;101646.88;5043542;28;20054;-61
2023/08/13 01:54:56;;;;;;;7.35;2.20;;;;;;;19.60;59.62;101651.50;5051506;28;20056;-61
2023/08/13 01:57:24;;;;;;;4.88;1.75;;;;;;;19.58;59.48;101643.59;5064282;28;20052;-62
2023/08/13 01:59:52;;;;;;;7.38;2.05;;;;;;;19.58;59.68;101649.06;5062857;28;20048;-62
2023/08/13 02:02:20;;;;;;;7.15;2.35;;;;;;;19.56;59.57;101648.50;5064101;28;20109;-61
2023/08/13 02:04:47;;;;;;;7.10;1.90;;;;;;;19.55;59.53;101652.31;5045205;28;20050;-61
2023/08/13 02:07:15;;;;;;;7.85;1.90;;;;;;;19.55;59.58;101648.75;5053251;28;20081;-61
2023/08/13 02:09:43;;;;;;;7.35;2.75;;;;;;;19.53;59.55;101646.28;5064120;28;20053;-61
2023/08/13 02:12:13;;;;;;;6.10;2.58;;;;;;;19.53;59.51;101645.47;5063840;28;20053;-61
2023/08/13 02:14:41;;;;;;;5.53;1.90;;;;;;;19.52;59.78;101641.09;5064093;28;20060;-61
2023/08/13 02:17:12;;;;;;;6.72;2.58;;;;;;;19.50;59.68;101644.06;5052892;28;20061;-61
2023/08/13 02:19:41;;;;;;;4.03;1.63;;;;;;;19.47;59.76;101642.66;5043898;28;20045;-60
2023/08/13 02:22:09;;;;;;;7.30;2.03;;;;;;;19.48;59.68;101638.88;5061453;28;20041;-61
2023/08/13 02:24:37;;;;;;;7.35;2.60;;;;;;;19.47;59.86;101645.41;5047670;28;20061;-62
2023/08/13 02:27:05;;;;;;;8.18;2.47;;;;;;;19.46;59.88;101641.03;5067517;27;20088;-61
2023/08/13 02:29:34;;;;;;;10.75;2.72;;;;;;;19.44;59.82;101635.00;5135808;27;20047;-61
2023/08/13 02:32:02;;;;;;;7.75;2.63;;;;;;;19.43;59.77;101636.09;5043634;28;20049;-62
2023/08/13 02:34:32;;;;;;;6.38;1.95;;;;;;;19.42;59.96;101634.47;5059755;28;20070;-62
2023/08/13 02:37:00;;;;;;;7.47;2.22;;;;;;;19.40;60.12;101633.91;5057078;28;20071;-61
2023/08/13 02:39:28;;;;;;;7.00;1.98;;;;;;;19.39;59.99;101634.97;5063684;28;20045;-62
2023/08/13 02:41:56;;;;;;;8.05;2.88;;;;;;;19.38;59.99;101632.50;5057110;28;20046;-61
2023/08/13 02:44:25;;;;;;;7.70;2.50;;;;;;;19.38;60.21;101640.69;5047896;28;20057;-60
2023/08/13 02:46:54;;;;;;;4.38;1.60;;;;;;;19.36;60.01;101630.06;5050830;28;20045;-60
2023/08/13 02:49:22;;;;;;;4.70;1.83;;;;;;;19.36;60.22;101640.13;5043232;28;20049;-62
2023/08/13 02:51:49;;;;;;;8.88;2.92;;;;;;;19.34;60.27;101632.22;5043703;28;20083;-61
2023/08/13 02:54:17;;;;;;;5.88;2.30;;;;;;;19.27;60.01;101622.63;5049162;28;20049;-61
2023/08/13 02:56:45;;;;;;;6.72;1.95;;;;;;;19.32;60.01;101626.19;5043280;28;20486;-61
2023/08/13 02:59:13;;;;;;;6.90;2.10;;;;;;;19.31;60.17;101624.56;5043453;28;20113;-62
2023/08/13 03:01:41;;;;;;;7.68;2.30;;;;;;;19.30;60.19;101616.63;5043291;28;20087;-61
2023/08/13 03:04:10;;;;;;;6.93;2.28;;;;;;;19.30;60.29;101622.09;5043586;28;20050;-61
2023/08/13 03:06:38;;;;;;;6.00;1.75;;;;;;;19.28;60.33;101616.91;5042906;28;20060;-61
2023/08/13 03:09:06;;;;;;;8.35;2.38;;;;;;;19.27;60.37;101611.72;5043233;28;20049;-61
2023/08/13 03:11:34;;;;;;;4.60;1.90;;;;;;;19.27;60.17;101619.88;5043087;28;20045;-61
2023/08/13 03:14:02;;;;;;;9.07;2.03;;;;;;;19.27;60.32;101630.78;5048293;28;20045;-61
2023/08/13 03:16:29;;;;;;;6.65;2.30;;;;;;;19.25;60.22;101630.22;5062990;28;20049;-61
2023/08/13 03:18:57;;;;;;;7.03;2.08;;;;;;;19.23;60.22;101614.13;5063051;28;20085;-61
2023/08/13 03:21:26;;;;;;;10.25;2.45;;;;;;;19.23;60.25;101621.50;5043696;28;20057;-61
2023/08/13 03:23:54;;;;;;;4.85;1.88;;;;;;;19.21;60.41;101623.66;5043229;28;20136;-61
2023/08/13 03:26:22;;;;;;;8.48;2.35;;;;;;;19.20;60.45;101620.09;5042760;28;20060;-61
2023/08/13 03:28:50;;;;;;;5.95;2.15;;;;;;;19.18;60.37;101617.66;5117702;27;20052;-61
2023/08/13 03:31:18;;;;;;;7.80;2.22;;;;;;;19.18;60.40;101625.00;5062700;28;20045;-61
2023/08/13 03:33:45;;;;;;;6.30;2.00;;;;;;;19.17;60.38;101626.91;5062790;28;20052;-61
2023/08/13 03:36:13;;;;;;;12.18;3.05;;;;;;;19.16;60.36;101625.25;5061051;28;20045;-62
2023/08/13 03:38:42;;;;;;;7.93;2.40;;;;;;;19.16;60.46;101627.16;5023201;28;20049;-61
2023/08/13 03:41:10;;;;;;;6.53;2.60;;;;;;;19.15;60.41;101614.63;5032884;28;20045;-62
2023/08/13 03:43:38;;;;;;;5.90;2.47;;;;;;;19.14;60.52;101621.97;5042614;28;20053;-61
2023/08/13 03:46:06;;;;;;;6.05;1.85;;;;;;;19.13;60.46;101616.78;5052669;28;20053;-61
2023/08/13 03:48:34;;;;;;;5.43;1.75;;;;;;;19.12;60.62;101623.31;5050231;28;20049;-62
2023/08/13 03:51:03;;;;;;;11.32;2.35;;;;;;;19.11;60.40;101627.13;5044470;28;20057;-61
2023/08/13 03:53:30;;;;;;;6.35;2.10;;;;;;;19.10;60.71;101622.75;5042262;28;20083;-61
2023/08/13 03:55:59;;;;;;;6.35;2.20;;;;;;;19.09;60.58;101621.09;5058327;28;20494;-61
2023/08/13 03:58:30;;;;;;;6.68;2.22;;;;;;;19.08;60.59;101631.19;5059743;28;20414;-61
2023/08/13 04:01:04;;;;;;;8.85;2.50;;;;;;;19.08;60.66;101631.19;5022620;28;20507;-61
2023/08/13 04:03:32;;;;;;;10.38;2.67;;;;;;;19.07;60.69;101635.00;5022598;28;20075;-61
2023/08/13 04:06:00;;;;;;;10.57;3.17;;;;;;;19.05;60.65;101636.38;5036552;28;20087;-60
2023/08/13 04:08:28;;;;;;;6.90;1.98;;;;;;;19.05;60.73;101636.38;5062439;28;20053;-61
2023/08/13 04:10:55;;;;;;;10.65;2.47;;;;;;;19.03;60.57;101631.16;5061308;28;20056;-60
2023/08/13 04:13:24;;;;;;;5.43;2.05;;;;;;;19.02;60.56;101629.53;5048980;28;20061;-61
2023/08/13 04:15:52;;;;;;;6.80;2.15;;;;;;;19.02;60.61;101634.16;5041606;28;20075;-60
2023/08/13 04:18:20;;;;;;;5.18;2.00;;;;;;;19.01;60.76;101632.50;5041306;28;20053;-61
2023/08/13 04:20:49;;;;;;;5.90;2.15;;;;;;;19.00;60.59;101630.88;5041317;28;20086;-61
2023/08/13 04:23:17;;;;;;;6.57;2.42;;;;;;;19.00;60.64;101644.50;5050152;28;20056;-61
2023/08/13 04:25:44;;;;;;;7.38;1.85;;;;;;;18.98;60.77;101641.19;5042043;28;20049;-61
2023/08/13 04:28:13;;;;;;;5.72;2.10;;;;;;;18.97;60.91;101645.00;5055367;28;20053;-61
2023/08/13 04:30:42;;;;;;;6.07;2.50;;;;;;;18.96;60.72;101635.19;5061841;28;20045;-61
2023/08/13 04:33:09;;;;;;;5.70;2.20;;;;;;;18.95;60.74;101633.53;5085842;28;20047;-61
2023/08/13 04:35:37;;;;;;;5.90;2.42;;;;;;;18.93;60.81;101641.16;5062092;28;20448;-61
2023/08/13 04:38:05;;;;;;;10.93;2.95;;;;;;;18.91;60.77;101640.59;5080435;28;20078;-61
2023/08/13 04:40:33;;;;;;;5.47;2.00;;;;;;;18.91;60.81;101648.75;5036719;28;20106;-61
2023/08/13 04:43:01;;;;;;;8.45;2.20;;;;;;;18.89;60.80;101643.56;5036825;28;20099;-61
2023/08/13 04:45:29;;;;;;;8.18;2.72;;;;;;;18.81;60.95;101633.97;5061544;28;20048;-61
2023/08/13 04:47:58;;;;;;;4.05;2.00;;;;;;;18.88;60.89;101643.81;5061544;28;20072;-61
2023/08/13 04:50:26;;;;;;;5.40;2.10;;;;;;;18.85;60.99;101647.88;5048928;28;21945;-61
2023/08/13 04:52:53;;;;;;;6.28;1.85;;;;;;;18.84;61.03;101641.63;5053091;28;20530;-61
2023/08/13 04:55:21;;;;;;;5.90;2.47;;;;;;;18.83;61.01;101650.03;5052694;28;20053;-62
2023/08/13 04:57:49;;;;;;;6.70;2.95;;;;;;;18.82;60.94;101641.06;5063050;28;20052;-62
2023/08/13 05:00:17;;;;;;;6.30;1.88;;;;;;;18.81;60.96;101642.13;5065153;28;20506;-62
2023/08/13 05:02:45;;;;;;;7.03;2.10;;;;;;;18.80;60.97;101640.50;5065006;28;20214;-62
2023/08/13 05:05:14;;;;;;;6.22;2.30;;;;;;;18.79;60.98;101632.56;5063756;28;20049;-62
2023/08/13 05:07:42;;;;;;;4.07;1.98;;;;;;;18.78;60.95;101639.94;5064784;28;20055;-62
2023/08/13 05:10:10;;;;;;;7.00;1.83;;;;;;;18.78;60.95;101637.19;5048931;28;20495;-62
2023/08/13 05:12:38;;;;;;;4.60;2.35;;;;;;;18.77;61.11;101637.47;5047646;28;20045;-61
2023/08/13 05:15:06;;;;;;;7.45;2.15;;;;;;;18.75;61.18;101631.44;5065125;28;20102;-62
2023/08/13 05:17:35;;;;;;;6.28;2.33;;;;;;;18.74;61.16;101638.78;5064830;28;20049;-61
2023/08/13 05:20:05;;;;;;;4.03;1.95;;;;;;;18.74;61.12;101644.25;5056952;28;20060;-61
2023/08/13 05:22:35;;;;;;;3.78;2.00;;;;;;;18.74;61.11;101646.13;5044175;28;20049;-62
2023/08/13 05:25:03;;;;;;;6.30;1.85;;;;;;;18.73;61.06;101645.31;5045032;28;20060;-62
2023/08/13 05:27:31;;;;;;;5.25;1.98;;;;;;;18.72;61.24;101643.69;5051989;28;20045;-62
2023/08/13 05:29:59;;;;;;;5.43;2.40;;;;;;;18.70;61.20;101651.28;5063496;28;20064;-60
2023/08/13 05:32:26;;;;;;;4.38;2.22;;;;;;;18.69;61.35;101646.91;5064527;28;20056;-61
2023/08/13 05:34:54;;;;;;;6.32;2.00;;;;;;;18.69;61.27;101651.53;5031148;28;20132;-61
2023/08/13 05:37:22;;;;;;;10.25;2.08;;;;;;;18.67;61.31;101646.34;5085788;27;20047;-61
2023/08/13 05:39:52;;;;;;;6.93;1.90;;;;;;;18.67;61.28;101649.06;5046386;28;20046;-61
2023/08/13 05:42:20;;;;;;;7.80;2.42;;;;;;;18.68;61.34;101658.06;5044693;28;20071;-61
2023/08/13 05:44:48;;;;;;;11.73;2.30;;;;;;;18.68;61.37;101653.44;5044660;28;20060;-62
2023/08/13 05:47:16;;;;;;;5.18;2.08;;;;;;;18.68;61.60;101650.72;5044357;28;20095;-61
2023/08/13 05:49:43;;;;;;;4.50;1.73;;;;;;;18.68;61.48;101648.00;5044389;28;20054;-62
2023/08/13 05:52:11;;;;;;;6.13;2.50;;;;;;;18.68;61.60;101650.72;5044008;28;20049;-61
2023/08/13 05:54:40;;;;;;;6.80;2.20;;;;;;;18.68;61.50;101653.44;5049512;28;20068;-62
2023/08/13 05:57:09;;;;;;;6.88;2.35;;;;;;;18.67;61.62;101651.78;5064475;28;20112;-62
2023/08/13 05:59:38;;;;;;;4.63;1.83;;;;;;;18.67;61.61;101657.22;5064538;28;20112;-62
2023/08/13 06:02:06;;;;;;;7.13;2.20;;;;;;;18.67;61.43;101664.59;5064051;28;20045;-61
2023/08/13 06:04:35;;;;;;;6.35;2.38;;;;;;;18.66;61.73;101666.47;5062968;28;20052;-62
2023/08/13 06:07:03;;;;;;;5.38;1.83;;;;;;;18.67;61.53;101675.47;5063884;28;20045;-62
2023/08/13 06:09:31;;;;;;;5.30;2.47;;;;;;;18.66;61.73;101668.38;5045877;28;20049;-62
2023/08/13 06:11:59;;;;;;;4.05;2.00;;;;;;;18.66;61.85;101666.47;5043982;28;20057;-62
2023/08/13 06:14:28;;;;;;;5.25;2.13;;;;;;;18.65;61.48;101661.28;5044066;28;20079;-62
2023/08/13 06:16:56;;;;;;;6.43;2.25;;;;;;;18.66;61.68;101671.09;5044214;28;20049;-61
2023/08/13 06:19:39;;;;;;;5.15;2.47;;;;;;;18.66;61.73;101668.38;5044213;28;20057;-61
2023/08/13 06:22:07;;;;;;;5.75;1.88;;;;;;;18.65;61.78;101651.22;5043423;28;20049;-60
2023/08/13 06:24:35;;;;;;;4.45;1.80;;;;;;;18.65;61.95;101664.00;5044250;27;20053;-61
2023/08/13 06:27:03;;;;;;;6.43;1.88;;;;;;;18.65;62.08;101658.56;5061385;27;20089;-61
2023/08/13 06:29:32;;;;;;;6.00;1.95;;;;;;;18.65;61.73;101653.13;5110510;27;20053;-61
2023/08/13 06:32:00;;;;;;;8.98;2.17;;;;;;;18.64;61.93;101652.31;5050392;28;20057;-61
2023/08/13 06:34:28;;;;;;;4.43;1.73;;;;;;;18.64;62.04;101652.31;5055225;28;20075;-61
2023/08/13 06:36:57;;;;;;;6.95;2.15;;;;;;;18.64;62.18;101652.31;5073351;27;20039;-62
2023/08/13 06:39:25;;;;;;;9.40;2.35;;;;;;;18.64;62.24;101652.31;5126916;27;20440;-61
2023/08/13 06:41:52;;;;;;;6.65;2.17;;;;;;;18.65;62.26;101655.84;5057206;28;20070;-61
2023/08/13 06:44:21;;;;;;;6.22;2.30;;;;;;;18.62;62.37;101654.47;5063343;28;20053;-62
2023/08/13 06:46:50;;;;;;;7.47;2.30;;;;;;;18.65;62.14;101662.13;5063465;28;20097;-61
2023/08/13 06:49:18;;;;;;;5.38;1.95;;;;;;;18.66;62.33;101657.50;5053717;28;20049;-62
2023/08/13 06:51:46;;;;;;;7.90;2.72;;;;;;;18.67;62.42;101661.84;5043044;28;20041;-62
2023/08/13 06:54:13;;;;;;;7.22;2.25;;;;;;;18.67;62.66;101656.41;5044703;28;20106;-62
2023/08/13 06:56:41;;;;;;;5.03;2.20;;;;;;;18.67;62.31;101659.13;5063449;28;20045;-62
2023/08/13 06:59:09;;;;;;;8.25;1.88;;;;;;;18.66;62.49;101652.88;5050273;28;20049;-62
2023/08/13 07:01:37;;;;;;;5.05;2.05;;;;;;;18.67;62.51;101656.41;5045258;28;20050;-62
2023/08/13 07:04:07;;;;;;;4.22;1.90;;;;;;;18.66;62.54;101643.88;5063026;28;20150;-61
2023/08/13 07:06:35;;;;;;;5.38;2.30;;;;;;;18.67;62.53;101659.97;5045781;28;20057;-61
2023/08/13 07:09:03;;;;;;;4.50;1.88;;;;;;;18.68;62.59;101652.63;5043494;28;20045;-62
2023/08/13 07:11:32;;;;;;;3.35;1.65;;;;;;;18.66;62.47;101644.69;5043142;28;20052;-62
2023/08/13 07:14:03;;;;;;;6.57;2.08;;;;;;;18.69;62.50;101646.91;5043050;28;20056;-62
2023/08/13 07:16:31;;;;;;;3.88;1.90;;;;;;;18.70;62.76;101654.00;5043159;28;20071;-62
2023/08/13 07:18:59;;;;;;;6.45;2.33;;;;;;;18.70;62.63;101647.72;5046716;28;20045;-61
2023/08/13 07:21:28;;;;;;;3.72;1.90;;;;;;;18.71;62.68;101649.38;5044666;28;20058;-61
2023/08/13 07:23:56;;;;;;;4.95;2.20;;;;;;;18.72;62.43;101645.56;5044457;27;20494;-60
2023/08/13 07:26:24;;;;;;;6.35;2.42;;;;;;;18.73;62.91;101641.78;5043001;28;20073;-61
2023/08/13 07:28:52;;;;;;;5.57;2.25;;;;;;;18.71;62.79;101642.03;5043168;28;20049;-61
2023/08/13 07:31:20;;;;;;;7.03;1.80;;;;;;;18.74;62.84;101646.13;5042979;28;20057;-61
2023/08/13 07:33:48;;;;;;;5.65;2.33;;;;;;;18.74;62.93;101646.97;5062692;28;20057;-61
2023/08/13 07:36:16;;;;;;;9.68;1.92;;;;;;;18.74;62.88;101649.69;5062127;28;20049;-61
2023/08/13 07:38:45;;;;;;;5.20;1.63;;;;;;;18.76;62.86;101654.88;5023047;28;20050;-61
2023/08/13 07:41:13;;;;;;;7.43;2.20;;;;;;;18.76;62.92;101647.53;5024090;28;20435;-61
2023/08/13 07:43:40;;;;;;;6.85;1.92;;;;;;;18.77;62.89;101645.63;5062482;28;20186;-61
2023/08/13 07:46:08;;;;;;;4.90;1.83;;;;;;;18.77;62.78;101651.06;5062637;28;20053;-61
2023/08/13 07:48:36;;;;;;;5.43;1.70;;;;;;;18.78;63.07;101647.28;5060805;28;20070;-61
2023/08/13 07:51:04;;;;;;;4.30;1.73;;;;;;;18.77;63.13;101637.47;5044293;28;20053;-61
2023/08/13 07:53:32;;;;;;;10.00;2.38;;;;;;;18.79;63.32;101638.03;5042300;28;20042;-61
2023/08/13 07:56:01;;;;;;;6.20;1.90;;;;;;;18.81;63.30;101641.31;5059120;28;20049;-61
2023/08/13 07:58:29;;;;;;;7.50;2.30;;;;;;;18.81;62.97;101638.59;5062514;28;20048;-61
2023/08/13 08:00:57;;;;;;;6.55;1.70;;;;;;;18.82;63.28;101630.16;5062647;28;20048;-61
2023/08/13 08:03:25;;;;;;;4.93;1.65;;;;;;;18.84;63.15;101635.34;5059601;28;20063;-61
2023/08/13 08:05:53;;;;;;;4.90;1.92;;;;;;;18.85;63.36;101637.81;5042261;28;20049;-60
2023/08/13 08:08:21;;;;;;;5.15;1.85;;;;;;;18.85;63.52;101635.09;5042539;28;20053;-61
2023/08/13 08:10:49;;;;;;;8.02;2.13;;;;;;;18.88;63.43;101633.75;5042512;28;20153;-61
2023/08/13 08:13:18;;;;;;;5.38;2.00;;;;;;;18.90;63.64;101638.94;5042198;28;20045;-61
2023/08/13 08:15:45;;;;;;;5.90;2.22;;;;;;;18.90;63.52;101639.75;5050906;28;20106;-60
2023/08/13 08:18:13;;;;;;;8.32;2.08;;;;;;;18.92;63.84;101643.06;5062219;28;20084;-61
2023/08/13 08:20:41;;;;;;;5.75;1.90;;;;;;;18.94;63.81;101643.63;5050284;28;20054;-61
2023/08/13 08:23:09;;;;;;;4.90;2.17;;;;;;;18.96;63.59;101638.72;5041947;28;20059;-61
2023/08/13 08:25:37;;;;;;;4.13;1.60;;;;;;;18.96;63.72;101641.47;5048899;28;20064;-62
2023/08/13 08:28:05;;;;;;;5.97;2.22;;;;;;;18.98;63.54;101635.75;5052427;28;20049;-62
2023/08/13 08:30:34;;;;;;;7.70;2.42;;;;;;;19.01;63.92;101635.22;5062191;28;20053;-62
2023/08/13 08:33:02;;;;;;;7.70;1.83;;;;;;;19.01;63.83;101627.88;5055843;28;20045;-62
2023/08/13 08:35:31;;;;;;;4.32;1.63;;;;;;;19.02;63.95;101632.25;5065825;28;20055;-62
2023/08/13 08:37:59;;;;;;;6.30;2.13;;;;;;;19.03;63.75;101633.91;5050883;28;20057;-62
2023/08/13 08:40:27;;;;;;;4.95;2.13;;;;;;;19.04;63.77;101635.53;5045637;28;20098;-61
2023/08/13 08:42:57;;;;;;;5.57;1.75;;;;;;;19.07;63.95;101628.72;5062876;28;20046;-61
2023/08/13 08:45:25;;;;;;;5.25;2.05;;;;;;;19.09;63.96;101634.72;5065463;28;20049;-59
2023/08/13 08:47:55;;;;;;;4.95;1.95;;;;;;;19.09;64.18;101629.28;5065211;28;20141;-61
2023/08/13 08:50:23;;;;;;;7.00;1.83;;;;;;;19.10;64.07;101630.94;5052444;28;20065;-61
2023/08/13 08:52:52;;;;;;;6.25;1.75;;;;;;;19.12;64.43;101629.59;5027118;28;20091;-60
2023/08/13 08:55:20;;;;;;;9.18;1.92;;;;;;;19.12;64.59;101628.75;5055966;28;20045;-61
2023/08/13 08:57:49;;;;;;;6.18;2.22;;;;;;;19.13;64.65;101625.78;5065195;28;20585;-60
2023/08/13 09:00:17;;;;;;;5.35;1.63;;;;;;;19.14;64.69;101624.69;5065377;28;20055;-61
2023/08/13 09:02:45;;;;;;;5.07;1.60;;;;;;;19.16;64.86;101622.53;5064996;28;20172;-61
2023/08/13 09:05:16;;;;;;;8.65;2.30;;;;;;;19.17;64.93;101613.28;5046526;28;20046;-61
2023/08/13 09:07:43;;;;;;;5.15;1.85;;;;;;;19.19;64.82;101613.00;5044791;28;20057;-61
2023/08/13 09:10:12;;;;;;;7.03;1.98;;;;;;;19.22;65.06;101611.69;5045263;28;20049;-61
2023/08/13 09:12:41;;;;;;;4.72;1.90;;;;;;;19.23;64.81;101610.59;5046744;28;20349;-60
2023/08/13 09:15:11;;;;;;;8.88;2.15;;;;;;;19.24;64.79;101610.34;5064875;28;20055;-61
2023/08/13 09:17:39;;;;;;;4.78;1.80;;;;;;;19.27;65.06;101606.25;5064596;28;20074;-60
2023/08/13 09:20:16;;;;;;;8.10;2.10;;;;;;;19.29;65.02;101604.91;5059752;28;20041;-62
2023/08/13 09:22:47;;;;;;;7.35;2.20;;;;;;;19.30;64.84;101603.00;5063037;28;20057;-61
2023/08/13 09:25:16;;;;;;;8.98;2.50;;;;;;;19.31;65.07;101602.75;5044680;28;20449;-61
2023/08/13 09:27:44;;;;;;;5.30;2.25;;;;;;;19.34;64.93;101598.69;5052994;28;20535;-61
2023/08/13 09:30:13;;;;;;;6.13;1.75;;;;;;;19.35;64.96;101603.06;5064860;28;20083;-61
2023/08/13 09:32:42;;;;;;;7.25;1.92;;;;;;;19.37;65.02;101598.16;5071420;27;20048;-61
2023/08/13 09:35:10;;;;;;;8.05;2.17;;;;;;;19.39;64.74;101590.53;5093511;27;20049;-61
2023/08/13 09:37:38;;;;;;;8.63;2.00;;;;;;;19.40;64.83;101582.09;5056020;27;20045;-61
2023/08/13 09:40:09;;;;;;;5.35;2.22;;;;;;;19.42;64.40;101590.00;5044686;28;20054;-61
2023/08/13 09:42:37;;;;;;;10.60;3.25;;;;;;;19.42;64.61;101581.84;5044381;28;20053;-62
2023/08/13 09:45:08;;;;;;;6.78;2.25;;;;;;;19.45;64.64;101575.84;5056480;28;20041;-62
2023/08/13 09:47:37;;;;;;;7.22;2.17;;;;;;;19.46;64.65;101577.50;5064367;28;20116;-61
2023/08/13 09:50:06;;;;;;;8.25;2.00;;;;;;;19.47;64.62;101579.16;5054343;28;20053;-61
2023/08/13 09:52:35;;;;;;;6.70;1.88;;;;;;;19.49;65.11;101571.53;5043768;28;20107;-60
2023/08/13 09:55:12;;;;;;;8.93;2.22;;;;;;;19.51;65.05;101569.34;5042660;28;20331;-61
2023/08/13 09:57:42;;;;;;;8.38;2.75;;;;;;;19.53;64.98;101569.13;5064334;28;20049;-62
2023/08/13 10:00:12;;;;;;;5.82;2.03;;;;;;;19.55;65.04;101564.22;5064319;28;20056;-61
2023/08/13 10:02:41;;;;;;;6.15;1.92;;;;;;;19.56;65.06;101569.41;5062553;28;20073;-61
2023/08/13 10:05:10;;;;;;;3.72;1.92;;;;;;;19.57;64.99;101560.16;5064307;28;20080;-61
2023/08/13 10:07:38;;;;;;;5.32;1.92;;;;;;;19.58;64.76;101558.25;5063523;28;20049;-61
2023/08/13 10:10:06;;;;;;;8.95;2.13;;;;;;;19.61;64.87;101565.91;5053237;28;20403;-60
2023/08/13 10:12:38;;;;;;;7.18;1.80;;;;;;;19.62;65.09;101565.63;5044024;28;20064;-61
2023/08/13 10:15:08;;;;;;;6.03;2.20;;;;;;;19.64;64.93;101562.63;5043983;28;20045;-60
2023/08/13 10:17:36;;;;;;;10.60;2.85;;;;;;;19.65;65.35;101556.09;5043445;28;20052;-61
2023/08/13 10:20:06;;;;;;;10.13;2.15;;;;;;;19.68;65.47;101563.75;5043855;28;20132;-61
2023/08/13 10:22:36;;;;;;;9.63;2.28;;;;;;;19.70;65.20;101561.56;5043220;28;20061;-62
2023/08/13 10:25:07;;;;;;;7.65;2.05;;;;;;;19.72;64.81;101549.31;5044101;28;20042;-61
2023/08/13 10:27:38;;;;;;;7.63;2.17;;;;;;;19.74;65.26;101554.50;5083973;27;20047;-61
2023/08/13 10:30:08;;;;;;;5.95;2.20;;;;;;;19.75;65.11;101564.34;5148256;27;20051;-62
2023/08/13 10:32:39;;;;;;;7.30;2.30;;;;;;;19.77;64.91;101554.78;5103442;27;20053;-61
2023/08/13 10:35:21;;;;;;;7.47;2.17;;;;;;;19.80;64.72;101556.16;5063337;28;20455;-61
2023/08/13 10:37:51;;;;;;;7.75;2.80;;;;;;;19.82;65.00;101554.81;5050076;28;20116;-61
2023/08/13 10:40:19;;;;;;;7.45;2.38;;;;;;;19.84;64.88;101549.09;5043405;28;20057;-61
2023/08/13 10:42:53;;;;;;;5.32;1.60;;;;;;;19.86;65.04;101551.56;5043307;28;20474;-61
2023/08/13 10:45:23;;;;;;;6.78;2.40;;;;;;;19.89;64.94;101548.31;5043641;28;20041;-61
2023/08/13 10:47:53;;;;;;;8.93;2.70;;;;;;;19.90;64.89;101550.75;5046479;28;20048;-61
2023/08/13 10:50:31;;;;;;;6.00;1.92;;;;;;;19.92;64.68;101545.84;5051188;28;20073;-62
2023/08/13 10:53:04;;;;;;;7.00;3.08;;;;;;;19.95;64.93;101542.59;5042781;28;20106;-61
2023/08/13 10:55:34;;;;;;;8.07;2.40;;;;;;;19.97;65.17;101540.41;5043075;28;20128;-62
2023/08/13 10:58:04;;;;;;;6.68;2.25;;;;;;;20.00;65.04;101542.63;5048657;27;20049;-61
2023/08/13 11:00:40;;;;;;;9.13;2.13;;;;;;;20.03;65.02;101539.34;5063333;28;20558;-61
2023/08/13 11:03:17;;;;;;;7.13;2.28;;;;;;;20.05;65.05;101537.16;5063421;28;20102;-61
2023/08/13 11:05:46;;;;;;;9.57;2.35;;;;;;;20.07;64.65;101528.72;5048659;28;20065;-62
2023/08/13 11:08:16;;;;;;;6.68;2.25;;;;;;;20.12;64.84;101539.66;5043145;28;20049;-62
2023/08/13 11:10:47;;;;;;;7.43;2.10;;;;;;;20.14;64.89;101537.47;5060519;28;20407;-61
2023/08/13 11:13:17;;;;;;;6.93;1.90;;;;;;;20.17;64.73;101534.22;5049975;28;20095;-62
2023/08/13 11:15:50;;;;;;;9.68;2.40;;;;;;;20.19;64.79;101537.47;5043022;28;20053;-61
2023/08/13 11:18:18;;;;;;;9.02;2.22;;;;;;;20.22;64.59;101533.41;5043018;28;20510;-61
2023/08/13 11:20:46;;;;;;;7.35;2.35;;;;;;;20.19;64.77;101520.28;5042706;28;20075;-60
2023/08/13 11:23:15;;;;;;;8.48;2.53;;;;;;;20.28;64.48;101526.84;5042552;28;20456;-61
2023/08/13 11:25:44;;;;;;;11.68;2.50;;;;;;;20.31;64.62;101529.06;5056968;28;20527;-60
2023/08/13 11:28:12;;;;;;;7.75;3.03;;;;;;;20.32;64.67;101528.78;5091415;27;20049;-61
2023/08/13 11:30:41;;;;;;;5.70;2.17;;;;;;;20.35;64.36;101532.88;5062758;28;20049;-61